sensor_id;sensor_type;location;lat;lon;timestamp;pressure;altitude;pressure_sealevel;temperature;humidity
68141;BME280;54941;52.220;104.306;2024-01-30T00:01:50;98101.63;;;-33.27;62.11
68141;BME280;54941;52.220;104.306;2024-01-30T00:04:16;98106.94;;;-33.19;61.70
68141;BME280;54941;52.220;104.306;2024-01-30T00:06:42;98098.00;;;-33.19;61.38
68141;BME280;54941;52.220;104.306;2024-01-30T00:09:09;98098.06;;;-33.04;61.40
68141;BME280;54941;52.220;104.306;2024-01-30T00:11:35;98097.25;;;-32.89;61.41
68141;BME280;54941;52.220;104.306;2024-01-30T00:14:03;98090.38;;;-32.86;60.68
68141;BME280;54941;52.220;104.306;2024-01-30T00:16:29;98098.53;;;-32.91;60.73
68141;BME280;54941;52.220;104.306;2024-01-30T00:18:56;98109.28;;;-32.91;60.92
68141;BME280;54941;52.220;104.306;2024-01-30T00:21:22;98112.56;;;-32.96;61.09
68141;BME280;54941;52.220;104.306;2024-01-30T00:23:49;98116.22;;;-33.13;61.61
68141;BME280;54941;52.220;104.306;2024-01-30T00:26:15;98111.19;;;-33.09;61.33
68141;BME280;54941;52.220;104.306;2024-01-30T00:28:42;98117.88;;;-32.98;60.79
68141;BME280;54941;52.220;104.306;2024-01-30T00:31:10;98107.53;;;-33.11;60.55
68141;BME280;54941;52.220;104.306;2024-01-30T00:33:36;98108.34;;;-33.16;60.76
68141;BME280;54941;52.220;104.306;2024-01-30T00:36:02;98107.06;;;-33.24;60.71
68141;BME280;54941;52.220;104.306;2024-01-30T00:38:29;98111.50;;;-33.36;60.91
68141;BME280;54941;52.220;104.306;2024-01-30T00:40:55;98115.31;;;-33.13;61.47
68141;BME280;54941;52.220;104.306;2024-01-30T00:43:21;98121.97;;;-32.83;61.85
68141;BME280;54941;52.220;104.306;2024-01-30T00:45:47;98110.38;;;-32.79;61.54
68141;BME280;54941;52.220;104.306;2024-01-30T00:48:16;98120.84;;;-32.95;61.31
68141;BME280;54941;52.220;104.306;2024-01-30T00:50:42;98126.53;;;-33.00;61.21
68141;BME280;54941;52.220;104.306;2024-01-30T00:53:08;98118.81;;;-33.07;61.07
68141;BME280;54941;52.220;104.306;2024-01-30T00:55:35;98126.03;;;-33.03;61.06
68141;BME280;54941;52.220;104.306;2024-01-30T00:58:02;98127.44;;;-33.00;61.12
68141;BME280;54941;52.220;104.306;2024-01-30T01:00:28;98135.38;;;-33.06;61.73
68141;BME280;54941;52.220;104.306;2024-01-30T01:02:54;98138.91;;;-33.10;61.19
68141;BME280;54941;52.220;104.306;2024-01-30T01:05:22;98137.19;;;-33.05;61.09
68141;BME280;54941;52.220;104.306;2024-01-30T01:07:48;98135.22;;;-33.02;60.91
68141;BME280;54941;52.220;104.306;2024-01-30T01:10:16;98134.72;;;-32.96;60.93
68141;BME280;54941;52.220;104.306;2024-01-30T01:12:42;98131.13;;;-33.07;60.98
68141;BME280;54941;52.220;104.306;2024-01-30T01:15:09;98132.72;;;-32.83;60.42
68141;BME280;54941;52.220;104.306;2024-01-30T01:17:35;98126.28;;;-32.92;60.52
68141;BME280;54941;52.220;104.306;2024-01-30T01:20:02;98127.44;;;-33.00;60.07
68141;BME280;54941;52.220;104.306;2024-01-30T01:22:31;98127.88;;;-33.12;60.63
68141;BME280;54941;52.220;104.306;2024-01-30T01:24:58;98121.13;;;-33.03;60.46
68141;BME280;54941;52.220;104.306;2024-01-30T01:27:24;98126.19;;;-32.98;60.48
68141;BME280;54941;52.220;104.306;2024-01-30T01:29:50;98121.59;;;-32.91;60.53
68141;BME280;54941;52.220;104.306;2024-01-30T01:32:17;98119.03;;;-32.71;60.93
68141;BME280;54941;52.220;104.306;2024-01-30T01:34:43;98121.44;;;-32.52;61.18
68141;BME280;54941;52.220;104.306;2024-01-30T01:37:10;98128.66;;;-32.48;61.10
68141;BME280;54941;52.220;104.306;2024-01-30T01:39:38;98112.00;;;-31.99;61.05
68141;BME280;54941;52.220;104.306;2024-01-30T01:42:04;98109.84;;;-32.07;61.14
68141;BME280;54941;52.220;104.306;2024-01-30T01:44:31;98110.44;;;-31.83;60.96
68141;BME280;54941;52.220;104.306;2024-01-30T01:46:57;98116.22;;;-31.88;60.75
68141;BME280;54941;52.220;104.306;2024-01-30T01:49:25;98118.50;;;-31.99;60.91
68141;BME280;54941;52.220;104.306;2024-01-30T01:51:55;98120.75;;;-32.11;61.51
68141;BME280;54941;52.220;104.306;2024-01-30T01:54:21;98123.91;;;-31.96;61.56
68141;BME280;54941;52.220;104.306;2024-01-30T01:56:49;98122.16;;;-31.82;60.99
68141;BME280;54941;52.220;104.306;2024-01-30T01:59:16;98121.28;;;-31.62;61.30
68141;BME280;54941;52.220;104.306;2024-01-30T02:01:43;98118.84;;;-31.47;61.25
68141;BME280;54941;52.220;104.306;2024-01-30T02:04:10;98119.56;;;-31.42;61.49
68141;BME280;54941;52.220;104.306;2024-01-30T02:06:36;98113.94;;;-31.26;61.40
68141;BME280;54941;52.220;104.306;2024-01-30T02:09:03;98111.34;;;-31.01;61.88
68141;BME280;54941;52.220;104.306;2024-01-30T02:11:29;98107.50;;;-30.84;62.04
68141;BME280;54941;52.220;104.306;2024-01-30T02:13:57;98116.28;;;-30.65;62.56
68141;BME280;54941;52.220;104.306;2024-01-30T02:16:28;98106.16;;;-30.66;62.67
68141;BME280;54941;52.220;104.306;2024-01-30T02:18:54;98107.88;;;-30.29;62.50
68141;BME280;54941;52.220;104.306;2024-01-30T02:21:30;98102.78;;;-29.93;62.17
68141;BME280;54941;52.220;104.306;2024-01-30T02:23:57;98107.22;;;-28.94;61.40
68141;BME280;54941;52.220;104.306;2024-01-30T02:26:27;98094.16;;;-28.05;58.98
68141;BME280;54941;52.220;104.306;2024-01-30T02:28:53;98094.84;;;-27.50;57.43
68141;BME280;54941;52.220;104.306;2024-01-30T02:31:20;98089.38;;;-27.26;56.58
68141;BME280;54941;52.220;104.306;2024-01-30T02:33:46;98088.94;;;-27.57;55.92
68141;BME280;54941;52.220;104.306;2024-01-30T02:36:12;98098.25;;;-27.84;56.01
68141;BME280;54941;52.220;104.306;2024-01-30T02:38:40;98099.09;;;-27.55;55.70
68141;BME280;54941;52.220;104.306;2024-01-30T02:41:06;98088.47;;;-27.15;55.00
68141;BME280;54941;52.220;104.306;2024-01-30T02:43:32;98084.03;;;-26.71;54.30
68141;BME280;54941;52.220;104.306;2024-01-30T02:45:59;98086.44;;;-27.17;53.97
68141;BME280;54941;52.220;104.306;2024-01-30T02:48:25;98077.53;;;-26.41;53.76
68141;BME280;54941;52.220;104.306;2024-01-30T02:50:51;98080.84;;;-26.24;52.57
68141;BME280;54941;52.220;104.306;2024-01-30T02:53:17;98071.34;;;-25.38;50.83
68141;BME280;54941;52.220;104.306;2024-01-30T02:55:45;98073.72;;;-25.51;50.28
68141;BME280;54941;52.220;104.306;2024-01-30T02:58:11;98071.53;;;-25.36;49.95
68141;BME280;54941;52.220;104.306;2024-01-30T03:00:38;98068.19;;;-24.95;49.55
68141;BME280;54941;52.220;104.306;2024-01-30T03:03:04;98061.06;;;-24.68;49.24
68141;BME280;54941;52.220;104.306;2024-01-30T03:05:31;98065.66;;;-24.21;48.54
68141;BME280;54941;52.220;104.306;2024-01-30T03:07:57;98065.41;;;-24.17;47.37
68141;BME280;54941;52.220;104.306;2024-01-30T03:10:23;98060.41;;;-24.30;48.30
68141;BME280;54941;52.220;104.306;2024-01-30T03:12:51;98056.78;;;-24.01;48.04
68141;BME280;54941;52.220;104.306;2024-01-30T03:15:17;98060.97;;;-23.63;47.29
68141;BME280;54941;52.220;104.306;2024-01-30T03:17:44;98051.22;;;-23.11;47.03
68141;BME280;54941;52.220;104.306;2024-01-30T03:20:11;98049.44;;;-22.22;44.93
68141;BME280;54941;52.220;104.306;2024-01-30T03:22:37;98052.53;;;-22.17;43.98
68141;BME280;54941;52.220;104.306;2024-01-30T03:25:04;98035.16;;;-21.36;44.60
68141;BME280;54941;52.220;104.306;2024-01-30T03:27:31;98037.44;;;-21.11;42.88
68141;BME280;54941;52.220;104.306;2024-01-30T03:29:59;98048.13;;;-22.25;43.28
68141;BME280;54941;52.220;104.306;2024-01-30T03:32:26;98046.34;;;-21.47;43.31
68141;BME280;54941;52.220;104.306;2024-01-30T03:34:52;98057.47;;;-22.57;44.16
68141;BME280;54941;52.220;104.306;2024-01-30T03:37:18;98064.63;;;-23.11;46.01
68141;BME280;54941;52.220;104.306;2024-01-30T03:39:44;98052.38;;;-22.31;45.89
68141;BME280;54941;52.220;104.306;2024-01-30T03:42:11;98048.63;;;-21.75;43.92
68141;BME280;54941;52.220;104.306;2024-01-30T03:44:37;98047.47;;;-21.11;44.14
68141;BME280;54941;52.220;104.306;2024-01-30T03:47:05;98031.81;;;-19.85;41.29
68141;BME280;54941;52.220;104.306;2024-01-30T03:49:31;98034.41;;;-20.26;39.66
68141;BME280;54941;52.220;104.306;2024-01-30T03:51:57;98035.47;;;-20.45;38.89
68141;BME280;54941;52.220;104.306;2024-01-30T03:54:24;98035.22;;;-19.91;38.96
68141;BME280;54941;52.220;104.306;2024-01-30T03:56:50;98052.13;;;-22.00;40.96
68141;BME280;54941;52.220;104.306;2024-01-30T03:59:16;98048.50;;;-22.42;43.64
68141;BME280;54941;52.220;104.306;2024-01-30T04:01:42;98049.81;;;-22.96;44.08
68141;BME280;54941;52.220;104.306;2024-01-30T04:04:10;98036.94;;;-22.22;43.07
68141;BME280;54941;52.220;104.306;2024-01-30T04:06:36;98046.47;;;-22.77;44.55
68141;BME280;54941;52.220;104.306;2024-01-30T04:09:04;98054.09;;;-23.21;45.97
68141;BME280;54941;52.220;104.306;2024-01-30T04:11:31;98044.09;;;-23.59;47.33
68141;BME280;54941;52.220;104.306;2024-01-30T04:13:57;98041.00;;;-23.25;47.28
68141;BME280;54941;52.220;104.306;2024-01-30T04:16:23;98034.09;;;-23.08;48.02
68141;BME280;54941;52.220;104.306;2024-01-30T04:18:50;98035.81;;;-22.69;47.20
68141;BME280;54941;52.220;104.306;2024-01-30T04:21:20;98042.50;;;-23.08;48.99
68141;BME280;54941;52.220;104.306;2024-01-30T04:23:47;98031.25;;;-22.46;47.72
68141;BME280;54941;52.220;104.306;2024-01-30T04:26:13;98030.88;;;-22.94;48.40
68141;BME280;54941;52.220;104.306;2024-01-30T04:28:41;98024.00;;;-22.70;48.66
68141;BME280;54941;52.220;104.306;2024-01-30T04:31:08;98016.78;;;-22.94;49.53
68141;BME280;54941;52.220;104.306;2024-01-30T04:33:34;98014.72;;;-22.38;49.33
68141;BME280;54941;52.220;104.306;2024-01-30T04:36:00;98017.78;;;-22.86;48.84
68141;BME280;54941;52.220;104.306;2024-01-30T04:38:28;98010.53;;;-22.78;49.58
68141;BME280;54941;52.220;104.306;2024-01-30T04:40:54;98013.19;;;-22.96;49.12
68141;BME280;54941;52.220;104.306;2024-01-30T04:43:21;98008.47;;;-22.87;49.88
68141;BME280;54941;52.220;104.306;2024-01-30T04:45:47;98005.66;;;-22.96;49.35
68141;BME280;54941;52.220;104.306;2024-01-30T04:48:13;98005.47;;;-22.97;50.33
68141;BME280;54941;52.220;104.306;2024-01-30T04:50:39;98005.00;;;-22.75;50.31
68141;BME280;54941;52.220;104.306;2024-01-30T04:53:06;97996.72;;;-22.49;50.10
68141;BME280;54941;52.220;104.306;2024-01-30T04:55:35;97995.63;;;-22.51;49.94
68141;BME280;54941;52.220;104.306;2024-01-30T04:58:01;97992.50;;;-22.42;49.90
68141;BME280;54941;52.220;104.306;2024-01-30T05:00:27;98001.00;;;-22.67;50.43
68141;BME280;54941;52.220;104.306;2024-01-30T05:02:55;97987.59;;;-21.89;50.35
68141;BME280;54941;52.220;104.306;2024-01-30T05:05:21;98002.72;;;-22.41;51.03
68141;BME280;54941;52.220;104.306;2024-01-30T05:07:47;97986.78;;;-21.82;49.67
68141;BME280;54941;52.220;104.306;2024-01-30T05:10:14;97982.41;;;-20.75;47.96
68141;BME280;54941;52.220;104.306;2024-01-30T05:12:42;97987.56;;;-21.49;49.07
68141;BME280;54941;52.220;104.306;2024-01-30T05:15:09;97982.41;;;-21.09;47.59
68141;BME280;54941;52.220;104.306;2024-01-30T05:17:35;97982.31;;;-21.23;48.36
68141;BME280;54941;52.220;104.306;2024-01-30T05:20:04;97981.94;;;-21.80;50.42
68141;BME280;54941;52.220;104.306;2024-01-30T05:22:31;97983.44;;;-21.75;49.92
68141;BME280;54941;52.220;104.306;2024-01-30T05:24:57;97970.75;;;-21.70;50.39
68141;BME280;54941;52.220;104.306;2024-01-30T05:27:24;97966.13;;;-21.67;50.60
68141;BME280;54941;52.220;104.306;2024-01-30T05:29:51;97970.91;;;-21.48;51.48
68141;BME280;54941;52.220;104.306;2024-01-30T05:32:18;97971.81;;;-20.80;50.08
68141;BME280;54941;52.220;104.306;2024-01-30T05:34:44;97975.28;;;-20.99;49.57
68141;BME280;54941;52.220;104.306;2024-01-30T05:37:10;97970.38;;;-21.12;50.35
68141;BME280;54941;52.220;104.306;2024-01-30T05:39:36;97962.72;;;-21.06;51.04
68141;BME280;54941;52.220;104.306;2024-01-30T05:42:03;97959.69;;;-20.97;51.53
68141;BME280;54941;52.220;104.306;2024-01-30T05:44:30;97955.84;;;-20.73;50.38
68141;BME280;54941;52.220;104.306;2024-01-30T05:46:57;97957.16;;;-20.62;51.19
68141;BME280;54941;52.220;104.306;2024-01-30T05:49:23;97951.72;;;-20.73;51.13
68141;BME280;54941;52.220;104.306;2024-01-30T05:51:50;97945.94;;;-20.86;50.71
68141;BME280;54941;52.220;104.306;2024-01-30T05:54:16;97942.13;;;-20.34;50.65
68141;BME280;54941;52.220;104.306;2024-01-30T05:56:42;97945.72;;;-20.46;50.70
68141;BME280;54941;52.220;104.306;2024-01-30T05:59:09;97934.88;;;-20.74;51.69
68141;BME280;54941;52.220;104.306;2024-01-30T06:01:35;97926.53;;;-20.03;50.63
68141;BME280;54941;52.220;104.306;2024-01-30T06:04:03;97930.31;;;-20.07;50.32
68141;BME280;54941;52.220;104.306;2024-01-30T06:06:29;97936.94;;;-20.21;50.83
68141;BME280;54941;52.220;104.306;2024-01-30T06:08:55;97934.59;;;-20.48;51.77
68141;BME280;54941;52.220;104.306;2024-01-30T06:11:21;97929.94;;;-20.45;51.53
68141;BME280;54941;52.220;104.306;2024-01-30T06:13:48;97929.19;;;-20.37;51.16
68141;BME280;54941;52.220;104.306;2024-01-30T06:16:14;97931.16;;;-20.49;51.80
68141;BME280;54941;52.220;104.306;2024-01-30T06:18:40;97926.16;;;-20.27;51.66
68141;BME280;54941;52.220;104.306;2024-01-30T06:21:08;97929.59;;;-20.48;52.39
68141;BME280;54941;52.220;104.306;2024-01-30T06:23:34;97928.88;;;-20.19;52.50
68141;BME280;54941;52.220;104.306;2024-01-30T06:26:01;97922.75;;;-20.21;52.57
68141;BME280;54941;52.220;104.306;2024-01-30T06:28:27;97919.88;;;-20.02;52.13
68141;BME280;54941;52.220;104.306;2024-01-30T06:30:53;97924.72;;;-20.32;53.65
68141;BME280;54941;52.220;104.306;2024-01-30T06:33:19;97924.16;;;-20.37;54.38
68141;BME280;54941;52.220;104.306;2024-01-30T06:35:46;97918.59;;;-20.49;55.55
68141;BME280;54941;52.220;104.306;2024-01-30T06:38:13;97916.13;;;-19.70;54.49
68141;BME280;54941;52.220;104.306;2024-01-30T06:40:40;97915.75;;;-19.81;55.10
68141;BME280;54941;52.220;104.306;2024-01-30T06:43:06;97917.56;;;-19.80;54.95
68141;BME280;54941;52.220;104.306;2024-01-30T06:45:32;97918.47;;;-19.93;55.70
68141;BME280;54941;52.220;104.306;2024-01-30T06:47:59;97916.84;;;-20.07;56.47
68141;BME280;54941;52.220;104.306;2024-01-30T06:50:25;97906.75;;;-20.28;57.67
68141;BME280;54941;52.220;104.306;2024-01-30T06:52:51;97915.41;;;-19.91;57.20
68141;BME280;54941;52.220;104.306;2024-01-30T06:55:19;97906.25;;;-19.76;57.13
68141;BME280;54941;52.220;104.306;2024-01-30T06:57:46;97908.06;;;-19.75;56.11
68141;BME280;54941;52.220;104.306;2024-01-30T07:00:13;97902.66;;;-19.71;56.23
68141;BME280;54941;52.220;104.306;2024-01-30T07:02:39;97908.22;;;-19.81;57.34
68141;BME280;54941;52.220;104.306;2024-01-30T07:05:06;97905.56;;;-19.89;57.81
68141;BME280;54941;52.220;104.306;2024-01-30T07:07:33;97903.41;;;-19.79;58.37
68141;BME280;54941;52.220;104.306;2024-01-30T07:09:59;97902.50;;;-20.01;58.94
68141;BME280;54941;52.220;104.306;2024-01-30T07:12:27;97902.81;;;-19.69;59.74
68141;BME280;54941;52.220;104.306;2024-01-30T07:14:53;97905.91;;;-20.00;61.00
68141;BME280;54941;52.220;104.306;2024-01-30T07:17:19;97893.47;;;-19.70;61.21
68141;BME280;54941;52.220;104.306;2024-01-30T07:19:46;97892.22;;;-19.81;61.84
68141;BME280;54941;52.220;104.306;2024-01-30T07:22:12;97890.75;;;-19.58;62.02
68141;BME280;54941;52.220;104.306;2024-01-30T07:24:42;97895.09;;;-19.71;62.54
68141;BME280;54941;52.220;104.306;2024-01-30T07:27:09;97896.88;;;-19.70;62.94
68141;BME280;54941;52.220;104.306;2024-01-30T07:29:37;97898.06;;;-19.38;63.04
68141;BME280;54941;52.220;104.306;2024-01-30T07:32:03;97902.44;;;-19.58;63.18
68141;BME280;54941;52.220;104.306;2024-01-30T07:34:29;97902.13;;;-19.75;64.09
68141;BME280;54941;52.220;104.306;2024-01-30T07:36:56;97896.78;;;-19.27;63.77
68141;BME280;54941;52.220;104.306;2024-01-30T07:39:22;97895.50;;;-19.16;63.49
68141;BME280;54941;52.220;104.306;2024-01-30T07:41:49;97897.25;;;-19.60;63.74
68141;BME280;54941;52.220;104.306;2024-01-30T07:44:15;97897.63;;;-19.85;64.38
68141;BME280;54941;52.220;104.306;2024-01-30T07:46:43;97899.06;;;-19.66;64.00
68141;BME280;54941;52.220;104.306;2024-01-30T07:49:09;97897.28;;;-19.67;64.63
68141;BME280;54941;52.220;104.306;2024-01-30T07:51:36;97898.88;;;-19.74;64.76
68141;BME280;54941;52.220;104.306;2024-01-30T07:54:02;97905.19;;;-19.99;65.36
68141;BME280;54941;52.220;104.306;2024-01-30T07:56:29;97903.91;;;-19.82;65.19
68141;BME280;54941;52.220;104.306;2024-01-30T07:58:55;97897.28;;;-19.67;66.02
68141;BME280;54941;52.220;104.306;2024-01-30T08:01:21;97905.88;;;-19.65;65.26
68141;BME280;54941;52.220;104.306;2024-01-30T08:03:49;97902.66;;;-19.78;65.99
68141;BME280;54941;52.220;104.306;2024-01-30T08:06:15;97898.00;;;-19.96;66.37
68141;BME280;54941;52.220;104.306;2024-01-30T08:08:42;97904.97;;;-19.80;66.03
68141;BME280;54941;52.220;104.306;2024-01-30T08:11:08;97904.78;;;-20.31;67.58
68141;BME280;54941;52.220;104.306;2024-01-30T08:13:34;97905.88;;;-20.29;68.34
68141;BME280;54941;52.220;104.306;2024-01-30T08:16:00;97902.81;;;-20.33;67.97
68141;BME280;54941;52.220;104.306;2024-01-30T08:18:27;97905.16;;;-20.21;67.48
68141;BME280;54941;52.220;104.306;2024-01-30T08:20:55;97900.84;;;-20.15;66.83
68141;BME280;54941;52.220;104.306;2024-01-30T08:23:21;97901.56;;;-20.16;66.27
68141;BME280;54941;52.220;104.306;2024-01-30T08:25:47;97904.59;;;-20.40;66.55
68141;BME280;54941;52.220;104.306;2024-01-30T08:28:13;97902.28;;;-20.52;66.64
68141;BME280;54941;52.220;104.306;2024-01-30T08:30:40;97907.47;;;-20.58;67.07
68141;BME280;54941;52.220;104.306;2024-01-30T08:33:06;97910.19;;;-20.56;67.25
68141;BME280;54941;52.220;104.306;2024-01-30T08:35:32;97899.59;;;-20.32;66.90
68141;BME280;54941;52.220;104.306;2024-01-30T08:38:00;97901.94;;;-20.20;66.53
68141;BME280;54941;52.220;104.306;2024-01-30T08:40:26;97900.31;;;-20.19;66.22
68141;BME280;54941;52.220;104.306;2024-01-30T08:42:53;97898.53;;;-20.13;65.39
68141;BME280;54941;52.220;104.306;2024-01-30T08:45:19;97907.69;;;-20.35;66.08
68141;BME280;54941;52.220;104.306;2024-01-30T08:47:45;97904.59;;;-20.54;66.59
68141;BME280;54941;52.220;104.306;2024-01-30T08:50:12;97910.72;;;-20.52;66.33
68141;BME280;54941;52.220;104.306;2024-01-30T08:52:38;97908.56;;;-20.49;66.14
68141;BME280;54941;52.220;104.306;2024-01-30T08:55:06;97905.50;;;-20.39;66.14
68141;BME280;54941;52.220;104.306;2024-01-30T08:57:33;97917.53;;;-20.58;66.05
68141;BME280;54941;52.220;104.306;2024-01-30T08:59:59;97912.69;;;-20.49;66.00
68141;BME280;54941;52.220;104.306;2024-01-30T09:02:25;97912.88;;;-20.48;66.25
68141;BME280;54941;52.220;104.306;2024-01-30T09:04:52;97915.19;;;-20.56;66.08
68141;BME280;54941;52.220;104.306;2024-01-30T09:07:18;97912.13;;;-20.61;66.68
68141;BME280;54941;52.220;104.306;2024-01-30T09:09:44;97912.13;;;-20.68;66.49
68141;BME280;54941;52.220;104.306;2024-01-30T09:12:12;97914.84;;;-20.52;66.25
68141;BME280;54941;52.220;104.306;2024-01-30T09:14:39;97912.69;;;-20.49;66.45
68141;BME280;54941;52.220;104.306;2024-01-30T09:17:06;97914.63;;;-20.68;66.67
68141;BME280;54941;52.220;104.306;2024-01-30T09:19:32;97921.97;;;-20.70;66.02
68141;BME280;54941;52.220;104.306;2024-01-30T09:21:58;97914.78;;;-20.74;65.39
68141;BME280;54941;52.220;104.306;2024-01-30T09:24:26;97920.69;;;-21.29;64.60
68141;BME280;54941;52.220;104.306;2024-01-30T09:26:52;97929.75;;;-21.70;64.76
68141;BME280;54941;52.220;104.306;2024-01-30T09:29:20;97921.34;;;-21.91;65.17
68141;BME280;54941;52.220;104.306;2024-01-30T09:31:47;97930.53;;;-22.11;66.27
68141;BME280;54941;52.220;104.306;2024-01-30T09:34:13;97932.09;;;-22.19;66.63
68141;BME280;54941;52.220;104.306;2024-01-30T09:36:40;97934.25;;;-22.34;67.24
68141;BME280;54941;52.220;104.306;2024-01-30T09:39:06;97949.09;;;-22.56;67.23
68141;BME280;54941;52.220;104.306;2024-01-30T09:41:33;97935.88;;;-22.55;67.90
68141;BME280;54941;52.220;104.306;2024-01-30T09:44:03;97947.34;;;-22.82;67.83
68141;BME280;54941;52.220;104.306;2024-01-30T09:46:33;97952.53;;;-22.88;68.68
68141;BME280;54941;52.220;104.306;2024-01-30T09:49:02;97956.66;;;-23.01;68.88
68141;BME280;54941;52.220;104.306;2024-01-30T09:51:30;97962.13;;;-23.03;68.93
68141;BME280;54941;52.220;104.306;2024-01-30T09:53:57;97960.25;;;-22.99;69.79
68141;BME280;54941;52.220;104.306;2024-01-30T09:56:23;97963.75;;;-23.17;69.18
68141;BME280;54941;52.220;104.306;2024-01-30T09:58:49;97954.59;;;-23.36;69.29
68141;BME280;54941;52.220;104.306;2024-01-30T10:01:17;97960.06;;;-23.51;69.27
68141;BME280;54941;52.220;104.306;2024-01-30T10:03:46;97967.88;;;-23.93;69.01
68141;BME280;54941;52.220;104.306;2024-01-30T10:06:12;97971.53;;;-23.97;69.13
68141;BME280;54941;52.220;104.306;2024-01-30T10:08:39;97967.56;;;-23.89;69.33
68141;BME280;54941;52.220;104.306;2024-01-30T10:11:05;97965.25;;;-24.01;70.68
68141;BME280;54941;52.220;104.306;2024-01-30T10:13:31;97967.56;;;-24.02;70.67
68141;BME280;54941;52.220;104.306;2024-01-30T10:15:58;97977.16;;;-23.92;70.12
68141;BME280;54941;52.220;104.306;2024-01-30T10:18:24;97983.97;;;-24.23;69.22
68141;BME280;54941;52.220;104.306;2024-01-30T10:20:52;97980.97;;;-24.20;68.90
68141;BME280;54941;52.220;104.306;2024-01-30T10:23:18;97982.38;;;-24.35;69.15
68141;BME280;54941;52.220;104.306;2024-01-30T10:25:45;97996.38;;;-24.30;69.76
68141;BME280;54941;52.220;104.306;2024-01-30T10:28:11;97988.97;;;-24.35;69.32
68141;BME280;54941;52.220;104.306;2024-01-30T10:30:38;97995.69;;;-24.47;69.45
68141;BME280;54941;52.220;104.306;2024-01-30T10:33:04;97999.63;;;-24.36;70.01
68141;BME280;54941;52.220;104.306;2024-01-30T10:35:31;97997.75;;;-24.32;70.05
68141;BME280;54941;52.220;104.306;2024-01-30T10:37:58;98006.78;;;-24.45;69.77
68141;BME280;54941;52.220;104.306;2024-01-30T10:40:28;98013.66;;;-24.68;69.64
68141;BME280;54941;52.220;104.306;2024-01-30T10:42:55;98003.19;;;-24.84;68.49
68141;BME280;54941;52.220;104.306;2024-01-30T10:45:23;98007.78;;;-24.87;68.99
68141;BME280;54941;52.220;104.306;2024-01-30T10:47:55;98011.78;;;-24.81;69.08
68141;BME280;54941;52.220;104.306;2024-01-30T10:50:22;98020.53;;;-24.72;68.69
68141;BME280;54941;52.220;104.306;2024-01-30T10:52:50;98019.69;;;-24.78;68.37
68141;BME280;54941;52.220;104.306;2024-01-30T10:55:18;98024.53;;;-24.67;68.25
68141;BME280;54941;52.220;104.306;2024-01-30T10:57:45;98011.94;;;-24.74;68.00
68141;BME280;54941;52.220;104.306;2024-01-30T11:00:13;98018.59;;;-24.99;67.99
68141;BME280;54941;52.220;104.306;2024-01-30T11:02:41;98020.94;;;-24.88;67.99
68141;BME280;54941;52.220;104.306;2024-01-30T11:05:09;98017.84;;;-24.74;67.72
68141;BME280;54941;52.220;104.306;2024-01-30T11:07:35;98018.91;;;-24.90;68.44
68141;BME280;54941;52.220;104.306;2024-01-30T11:10:03;98022.53;;;-24.88;67.81
68141;BME280;54941;52.220;104.306;2024-01-30T11:12:38;98028.16;;;-25.02;67.19
68141;BME280;54941;52.220;104.306;2024-01-30T11:15:07;98029.25;;;-25.18;67.57
68141;BME280;54941;52.220;104.306;2024-01-30T11:17:52;98040.84;;;-25.24;67.56
68141;BME280;54941;52.220;104.306;2024-01-30T11:20:20;98030.94;;;-25.06;67.61
68141;BME280;54941;52.220;104.306;2024-01-30T11:22:48;98041.91;;;-25.17;68.13
68141;BME280;54941;52.220;104.306;2024-01-30T11:25:16;98047.78;;;-25.16;68.44
68141;BME280;54941;52.220;104.306;2024-01-30T11:27:46;98048.78;;;-25.21;68.09
68141;BME280;54941;52.220;104.306;2024-01-30T11:30:22;98049.69;;;-25.26;67.66
68141;BME280;54941;52.220;104.306;2024-01-30T11:33:01;98049.66;;;-25.21;68.26
68141;BME280;54941;52.220;104.306;2024-01-30T11:35:30;98047.91;;;-25.27;67.67
68141;BME280;54941;52.220;104.306;2024-01-30T11:37:57;98058.25;;;-25.42;67.81
68141;BME280;54941;52.220;104.306;2024-01-30T11:40:25;98053.50;;;-25.47;68.03
68141;BME280;54941;52.220;104.306;2024-01-30T11:42:55;98061.06;;;-25.52;68.38
68141;BME280;54941;52.220;104.306;2024-01-30T11:45:21;98059.03;;;-25.55;68.93
68141;BME280;54941;52.220;104.306;2024-01-30T11:47:48;98062.38;;;-25.49;68.73
68141;BME280;54941;52.220;104.306;2024-01-30T11:50:15;98060.53;;;-25.44;67.90
68141;BME280;54941;52.220;104.306;2024-01-30T11:52:41;98066.25;;;-25.51;68.12
68141;BME280;54941;52.220;104.306;2024-01-30T11:55:08;98065.56;;;-25.50;67.82
68141;BME280;54941;52.220;104.306;2024-01-30T11:57:35;98062.31;;;-25.67;67.23
68141;BME280;54941;52.220;104.306;2024-01-30T12:00:05;98068.31;;;-25.78;67.21
68141;BME280;54941;52.220;104.306;2024-01-30T12:02:32;98073.72;;;-25.75;67.13
68141;BME280;54941;52.220;104.306;2024-01-30T12:04:58;98069.69;;;-25.80;67.36
68141;BME280;54941;52.220;104.306;2024-01-30T12:07:24;98084.66;;;-25.85;68.43
68141;BME280;54941;52.220;104.306;2024-01-30T12:09:54;98069.41;;;-25.76;68.56
68141;BME280;54941;52.220;104.306;2024-01-30T12:12:22;98079.38;;;-25.76;68.05
68141;BME280;54941;52.220;104.306;2024-01-30T12:14:49;98080.06;;;-25.77;67.64
68141;BME280;54941;52.220;104.306;2024-01-30T12:17:26;98083.97;;;-25.84;67.19
68141;BME280;54941;52.220;104.306;2024-01-30T12:20:03;98081.28;;;-25.62;67.85
68141;BME280;54941;52.220;104.306;2024-01-30T12:22:30;98080.28;;;-25.51;67.75
68141;BME280;54941;52.220;104.306;2024-01-30T12:24:57;98085.53;;;-25.55;67.68
68141;BME280;54941;52.220;104.306;2024-01-30T12:27:23;98077.38;;;-25.78;67.96
68141;BME280;54941;52.220;104.306;2024-01-30T12:29:56;98087.69;;;-25.69;67.18